Time;durP1;ratioP1;P1;durP2;ratioP2;P2;SDS_P1;SDS_P2;PMS_P1;PMS_P2;Temp;Humidity;BMP_temperature;BMP_pressure;BME280_temperature;BME280_humidity;BME280_pressure;Samples;Min_cycle;Max_cycle;Signal;HPM_P1;HPM_P2
2023/01/30 02:43:56;;;;;;;21.35;11.68;;;27.30;99.90;;;;;;5071408;28;20650;-70
2023/01/30 02:46:34;;;;;;;18.65;10.85;;;27.20;99.90;;;;;;5071031;28;20036;-73
2023/01/30 02:49:08;;;;;;;39.17;16.38;;;27.50;99.90;;;;;;5070895;28;20024;-73
2023/01/30 02:51:38;;;;;;;38.17;12.98;;;27.80;99.90;;;;;;5070805;28;20130;-72
2023/01/30 02:54:07;;;;;;;58.95;12.60;;;28.00;99.90;;;;;;5067674;28;20458;-69
2023/01/30 02:56:48;;;;;;;37.33;12.65;;;28.20;99.90;;;;;;5059374;28;20041;-69
2023/01/30 02:59:21;;;;;;;25.08;15.65;;;28.40;99.90;;;;;;5050523;28;20021;-68
2023/01/30 03:01:48;;;;;;;26.55;14.82;;;28.50;99.90;;;;;;5050533;28;20116;-68
2023/01/30 03:04:44;;;;;;;27.90;17.02;;;28.70;99.90;;;;;;5050287;28;20463;-69
2023/01/30 03:07:24;;;;;;;26.63;11.30;;;28.90;99.90;;;;;;5050384;28;20021;-69
2023/01/30 03:10:00;;;;;;;19.20;11.07;;;28.90;99.90;;;;;;5050220;28;20028;-69
2023/01/30 03:12:34;;;;;;;22.95;11.23;;;29.00;99.90;;;;;;5050308;28;20028;-69
2023/01/30 03:15:16;;;;;;;20.73;9.93;;;29.00;99.90;;;;;;5050057;28;20432;-69
2023/01/30 03:17:45;;;;;;;19.30;10.98;;;29.10;99.90;;;;;;5050170;28;20056;-68
2023/01/30 03:20:13;;;;;;;30.70;15.60;;;29.10;99.90;;;;;;5049983;28;20028;-68
2023/01/30 03:22:40;;;;;;;52.90;30.52;;;29.20;99.90;;;;;;5049925;28;20112;-69
2023/01/30 03:25:07;;;;;;;30.33;22.88;;;29.40;99.90;;;;;;5049992;28;20377;-70
2023/01/30 03:27:36;;;;;;;28.33;13.25;;;29.60;99.90;;;;;;5049810;28;20021;-70
2023/01/30 03:30:03;;;;;;;62.28;43.28;;;29.50;99.90;;;;;;5049930;28;20021;-69
2023/01/30 03:32:29;;;;;;;23.33;9.52;;;29.50;99.90;;;;;;5049814;28;20025;-70
2023/01/30 03:34:56;;;;;;;16.85;9.65;;;29.40;99.90;;;;;;5049754;28;20021;-69
2023/01/30 03:37:22;;;;;;;26.77;14.02;;;29.40;99.90;;;;;;5049819;28;20025;-69
2023/01/30 03:39:49;;;;;;;31.33;19.23;;;29.40;99.90;;;;;;5054866;28;20025;-71
2023/01/30 03:42:15;;;;;;;18.33;8.80;;;29.60;99.90;;;;;;5056807;28;20041;-71
2023/01/30 03:44:42;;;;;;;22.23;11.40;;;29.80;99.90;;;;;;5050134;28;20087;-70
2023/01/30 03:47:08;;;;;;;26.88;11.05;;;29.70;99.90;;;;;;5050511;28;20409;-72
2023/01/30 03:49:35;;;;;;;21.85;12.35;;;29.60;99.90;;;;;;5050203;28;20032;-72
2023/01/30 03:52:01;;;;;;;28.63;11.88;;;29.70;99.90;;;;;;5050151;28;20079;-73
2023/01/30 03:54:28;;;;;;;25.55;11.85;;;29.70;99.90;;;;;;5039533;28;20548;-72
2023/01/30 03:56:54;;;;;;;28.23;11.02;;;29.80;99.90;;;;;;5036884;28;20029;-67
2023/01/30 03:59:21;;;;;;;41.53;20.40;;;29.80;99.90;;;;;;5036167;28;20505;-67
2023/01/30 04:01:47;;;;;;;26.05;12.43;;;29.80;99.90;;;;;;5046009;28;20056;-69
2023/01/30 04:04:14;;;;;;;21.33;9.48;;;30.00;99.90;;;;;;5045581;28;20013;-68
2023/01/30 04:06:40;;;;;;;21.10;8.32;;;29.90;99.90;;;;;;5044378;28;20144;-68
2023/01/30 04:09:07;;;;;;;36.75;8.73;;;29.90;99.90;;;;;;5044106;28;20505;-70
2023/01/30 04:11:34;;;;;;;21.27;8.73;;;29.80;99.90;;;;;;5044799;28;20032;-69
2023/01/30 04:14:00;;;;;;;23.33;9.77;;;29.70;99.90;;;;;;5045845;28;20029;-72
2023/01/30 04:16:27;;;;;;;30.88;15.55;;;29.70;99.90;;;;;;5038679;28;20025;-72
2023/01/30 04:18:53;;;;;;;20.60;9.75;;;29.80;99.90;;;;;;5041487;28;20025;-71
2023/01/30 04:21:20;;;;;;;18.50;9.05;;;29.80;99.90;;;;;;5041621;28;20022;-69
2023/01/30 04:23:47;;;;;;;30.02;12.68;;;29.80;99.90;;;;;;5035918;28;20025;-68
2023/01/30 04:26:14;;;;;;;149.07;102.03;;;29.80;99.90;;;;;;5038688;28;20033;-72
2023/01/30 04:28:41;;;;;;;136.70;88.72;;;29.90;99.90;;;;;;5047372;28;20036;-73
2023/01/30 04:31:07;;;;;;;49.30;26.48;;;30.00;99.90;;;;;;5046151;28;20033;-72
2023/01/30 04:33:35;;;;;;;22.80;14.52;;;30.00;99.90;;;;;;5044193;28;20017;-70
2023/01/30 04:36:03;;;;;;;21.33;10.85;;;30.00;99.90;;;;;;5045495;28;20025;-71
2023/01/30 04:38:31;;;;;;;22.88;9.70;;;30.10;99.90;;;;;;5038894;28;20101;-72
2023/01/30 04:40:59;;;;;;;15.02;7.95;;;30.10;99.90;;;;;;5036207;28;20601;-71
2023/01/30 04:43:27;;;;;;;20.10;10.75;;;30.10;99.90;;;;;;5035115;28;20053;-71
2023/01/30 04:45:54;;;;;;;16.10;8.52;;;30.20;99.90;;;;;;5035430;28;20056;-71
2023/01/30 04:48:22;;;;;;;23.08;10.30;;;30.30;99.90;;;;;;5037002;28;20087;-75
2023/01/30 04:50:51;;;;;;;22.02;11.25;;;30.40;99.90;;;;;;5044246;28;20025;-71
2023/01/30 04:53:19;;;;;;;22.17;10.93;;;30.60;99.90;;;;;;5035099;28;20056;-72
2023/01/30 04:55:46;;;;;;;21.20;10.35;;;30.50;99.90;;;;;;5035048;28;20025;-71
2023/01/30 04:58:14;;;;;;;25.45;13.85;;;30.50;99.90;;;;;;5049156;28;20078;-71
2023/01/30 05:00:40;;;;;;;19.13;11.68;;;30.50;99.90;;;;;;5055349;28;20052;-72
2023/01/30 05:03:07;;;;;;;23.95;12.70;;;30.60;99.90;;;;;;5055072;28;20067;-70
2023/01/30 05:05:33;;;;;;;53.60;37.05;;;30.60;99.90;;;;;;5053898;28;20017;-69
2023/01/30 05:08:00;;;;;;;23.92;13.60;;;30.60;99.90;;;;;;5055392;28;20021;-72
2023/01/30 05:10:27;;;;;;;53.75;37.17;;;30.60;99.90;;;;;;5055195;28;20040;-70
2023/01/30 05:12:53;;;;;;;18.92;10.15;;;30.70;99.90;;;;;;5055375;28;20033;-70
2023/01/30 05:15:20;;;;;;;24.63;16.83;;;30.70;99.90;;;;;;5055487;28;20025;-72
2023/01/30 05:17:46;;;;;;;30.75;19.08;;;30.70;99.90;;;;;;5055366;28;20075;-70
2023/01/30 05:20:13;;;;;;;32.20;22.77;;;30.60;99.90;;;;;;5044133;28;20069;-69
2023/01/30 05:22:40;;;;;;;26.50;14.05;;;30.70;99.90;;;;;;5044117;28;20033;-69
2023/01/30 05:25:07;;;;;;;61.40;42.22;;;30.80;99.90;;;;;;5049805;28;20025;-70
2023/01/30 05:27:33;;;;;;;16.60;8.18;;;30.90;99.90;;;;;;5045095;28;20242;-71
2023/01/30 05:30:00;;;;;;;14.82;8.23;;;30.90;99.90;;;;;;5035873;28;20032;-69
2023/01/30 05:32:29;;;;;;;54.03;12.48;;;31.00;99.90;;;;;;5035348;28;20025;-73
2023/01/30 05:34:55;;;;;;;23.90;10.45;;;31.00;99.90;;;;;;5035394;28;20064;-70
2023/01/30 05:37:23;;;;;;;27.27;12.93;;;31.10;99.90;;;;;;5035336;28;20107;-71
2023/01/30 05:39:49;;;;;;;18.60;10.15;;;31.10;99.90;;;;;;5034306;28;20083;-72
2023/01/30 05:42:16;;;;;;;16.10;9.65;;;31.10;99.90;;;;;;5034012;28;20049;-71
2023/01/30 05:44:43;;;;;;;17.45;9.20;;;31.20;99.90;;;;;;5034507;28;20021;-71
2023/01/30 05:47:09;;;;;;;13.40;8.30;;;31.40;99.90;;;;;;5034223;28;20064;-73
2023/01/30 05:49:36;;;;;;;20.45;10.73;;;31.40;99.90;;;;;;5034083;28;20025;-72
2023/01/30 05:52:02;;;;;;;19.10;8.05;;;31.30;99.90;;;;;;5034466;28;20040;-74
2023/01/30 05:54:29;;;;;;;17.73;8.75;;;31.30;99.90;;;;;;5034567;28;20048;-72
2023/01/30 05:56:55;;;;;;;14.52;8.68;;;31.30;99.90;;;;;;5034853;28;20428;-73
2023/01/30 05:59:22;;;;;;;19.75;8.98;;;31.30;99.90;;;;;;5037604;28;20478;-73
2023/01/30 06:01:48;;;;;;;10.52;7.15;;;31.30;99.90;;;;;;5042881;28;20032;-72
2023/01/30 06:04:15;;;;;;;12.27;6.32;;;31.30;99.90;;;;;;5034005;28;20021;-70
2023/01/30 06:06:41;;;;;;;16.02;7.50;;;31.40;99.90;;;;;;5033329;28;20021;-72
2023/01/30 06:09:10;;;;;;;14.70;7.10;;;31.30;99.90;;;;;;5038371;28;20108;-70
2023/01/30 06:11:37;;;;;;;11.27;7.10;;;31.30;99.90;;;;;;5035668;28;20041;-70
2023/01/30 06:14:03;;;;;;;26.80;13.00;;;31.40;99.90;;;;;;5041664;28;20093;-70
2023/01/30 06:16:30;;;;;;;10.98;7.32;;;31.40;99.90;;;;;;5041593;28;20029;-71
2023/01/30 06:18:56;;;;;;;15.50;8.05;;;31.50;99.90;;;;;;5042731;28;20021;-75
2023/01/30 06:21:23;;;;;;;15.45;8.27;;;31.60;99.90;;;;;;5043355;28;20018;-70
2023/01/30 06:23:50;;;;;;;25.70;14.95;;;31.70;99.90;;;;;;5040898;28;20014;-71
2023/01/30 06:26:16;;;;;;;15.60;9.43;;;31.90;99.90;;;;;;5042700;28;20039;-69
2023/01/30 06:28:43;;;;;;;15.85;6.28;;;31.90;99.90;;;;;;5043029;28;20013;-72
2023/01/30 06:31:09;;;;;;;13.52;6.60;;;31.80;99.90;;;;;;5041548;28;20076;-69
2023/01/30 06:33:36;;;;;;;13.40;7.25;;;31.90;99.90;;;;;;5040841;28;20032;-69
2023/01/30 06:36:03;;;;;;;12.07;6.72;;;31.80;99.90;;;;;;5042424;28;20086;-68
2023/01/30 06:38:29;;;;;;;23.00;10.13;;;31.90;99.90;;;;;;5041283;28;20029;-70
2023/01/30 06:40:56;;;;;;;24.98;8.13;;;31.90;99.90;;;;;;5050409;28;20029;-68
2023/01/30 06:43:22;;;;;;;31.77;10.02;;;31.90;99.90;;;;;;5052716;28;20098;-70
2023/01/30 06:45:49;;;;;;;51.38;33.75;;;31.90;99.90;;;;;;5053102;28;20515;-72
2023/01/30 06:48:15;;;;;;;36.30;24.17;;;31.90;99.90;;;;;;5053336;28;20029;-71
2023/01/30 06:50:42;;;;;;;39.28;21.90;;;31.80;99.90;;;;;;5046279;28;20087;-67
2023/01/30 06:53:09;;;;;;;17.42;10.10;;;31.80;99.90;;;;;;5041251;28;20021;-70
2023/01/30 06:55:37;;;;;;;15.85;9.30;;;31.70;99.90;;;;;;5041915;28;20040;-70
2023/01/30 06:58:07;;;;;;;15.45;9.70;;;31.70;99.90;;;;;;5042756;28;20051;-69
2023/01/30 07:00:34;;;;;;;13.95;8.15;;;31.60;99.90;;;;;;5041603;28;20029;-69
2023/01/30 07:03:01;;;;;;;15.27;8.70;;;31.60;99.90;;;;;;5041009;28;20052;-69
2023/01/30 07:05:28;;;;;;;18.88;10.15;;;31.50;99.90;;;;;;5042835;28;20028;-71
2023/01/30 07:07:55;;;;;;;19.40;9.10;;;31.50;99.90;;;;;;5040071;28;20017;-69
2023/01/30 07:10:22;;;;;;;14.02;6.88;;;31.40;99.90;;;;;;5032949;28;20033;-70
2023/01/30 07:12:48;;;;;;;10.05;6.38;;;31.00;99.90;;;;;;5032763;28;20034;-70
2023/01/30 07:15:15;;;;;;;4.88;3.17;;;30.60;99.90;;;;;;5032969;28;20022;-71
2023/01/30 07:17:41;;;;;;;7.18;5.13;;;30.10;99.90;;;;;;5032999;28;20026;-70
2023/01/30 07:20:10;;;;;;;7.32;4.82;;;29.90;99.90;;;;;;5032689;28;20026;-70
2023/01/30 07:22:37;;;;;;;17.90;9.63;;;29.90;99.90;;;;;;5032923;28;20029;-70
2023/01/30 07:25:04;;;;;;;41.08;29.27;;;30.00;99.90;;;;;;5032931;28;20029;-71
2023/01/30 07:27:30;;;;;;;9.50;5.93;;;30.10;99.90;;;;;;5052554;28;20017;-71
2023/01/30 07:29:57;;;;;;;11.15;7.15;;;30.20;99.90;;;;;;5055686;28;20449;-72
2023/01/30 07:32:23;;;;;;;12.98;8.32;;;30.40;99.90;;;;;;5056377;28;20075;-72
2023/01/30 07:34:50;;;;;;;12.98;7.78;;;30.60;99.90;;;;;;5056331;28;20021;-73
2023/01/30 07:37:16;;;;;;;13.50;8.02;;;30.60;99.90;;;;;;5056513;28;20052;-72
2023/01/30 07:39:43;;;;;;;19.65;9.30;;;30.60;99.90;;;;;;5056528;28;20588;-71
2023/01/30 07:42:09;;;;;;;19.98;11.35;;;30.60;99.90;;;;;;5056056;28;20103;-72
2023/01/30 07:44:36;;;;;;;16.15;10.05;;;30.50;99.90;;;;;;5056085;28;20138;-72
2023/01/30 07:47:03;;;;;;;23.35;12.93;;;30.50;99.90;;;;;;5056364;28;20017;-70
2023/01/30 07:49:29;;;;;;;23.95;14.25;;;30.60;99.90;;;;;;5056202;28;20066;-70
2023/01/30 07:51:56;;;;;;;25.75;15.73;;;30.60;99.90;;;;;;5055976;28;20028;-69
2023/01/30 07:54:22;;;;;;;20.35;12.13;;;30.60;99.90;;;;;;5056079;28;20021;-70
2023/01/30 07:56:49;;;;;;;23.48;12.90;;;30.70;99.90;;;;;;5055951;28;20032;-70
2023/01/30 07:59:15;;;;;;;23.58;11.68;;;30.80;99.90;;;;;;5055785;28;20032;-69
2023/01/30 08:01:42;;;;;;;35.58;22.83;;;30.80;99.90;;;;;;5056211;28;20067;-69
2023/01/30 08:04:10;;;;;;;26.02;10.95;;;30.90;99.90;;;;;;5056509;28;20029;-68
2023/01/30 08:06:38;;;;;;;25.52;9.88;;;30.60;99.90;;;;;;5056462;28;20477;-70
2023/01/30 08:09:05;;;;;;;19.08;9.93;;;30.60;99.90;;;;;;5056422;28;20056;-70
2023/01/30 08:11:32;;;;;;;16.90;10.25;;;30.40;99.90;;;;;;5056453;28;20027;-69
2023/01/30 08:13:59;;;;;;;27.25;12.80;;;30.30;99.90;;;;;;5056396;28;20273;-69
2023/01/30 08:16:25;;;;;;;29.67;13.18;;;30.40;99.90;;;;;;5056512;28;20029;-69
2023/01/30 08:18:52;;;;;;;20.55;11.98;;;30.50;99.90;;;;;;5056459;28;20057;-69
2023/01/30 08:21:18;;;;;;;17.40;10.35;;;30.60;99.90;;;;;;5056061;28;20048;-69
2023/01/30 08:23:45;;;;;;;18.95;9.40;;;30.50;99.90;;;;;;5056173;28;20088;-69
2023/01/30 08:26:12;;;;;;;30.58;16.05;;;30.40;99.90;;;;;;5056194;28;20021;-70
2023/01/30 08:28:39;;;;;;;19.33;11.77;;;30.40;99.90;;;;;;5055311;28;20024;-69
2023/01/30 08:31:09;;;;;;;19.33;10.95;;;30.40;99.90;;;;;;5055568;28;20131;-69
2023/01/30 08:33:36;;;;;;;51.97;30.15;;;30.50;99.90;;;;;;5055342;28;20104;-70
2023/01/30 08:36:03;;;;;;;35.25;24.13;;;30.50;99.90;;;;;;5055447;28;20026;-69
2023/01/30 08:38:29;;;;;;;31.25;17.40;;;30.60;99.90;;;;;;5055458;28;20028;-69
2023/01/30 08:40:56;;;;;;;25.67;15.82;;;30.40;99.90;;;;;;5055368;28;20515;-69
2023/01/30 08:43:23;;;;;;;22.35;11.88;;;30.50;99.90;;;;;;5055231;28;20140;-69
2023/01/30 08:45:53;;;;;;;18.88;10.45;;;30.60;99.90;;;;;;5055343;28;20465;-70
2023/01/30 08:48:20;;;;;;;21.75;9.18;;;30.60;99.90;;;;;;5054893;28;20048;-69
2023/01/30 08:50:46;;;;;;;13.00;6.40;;;30.70;99.90;;;;;;5054679;28;20471;-70
2023/01/30 08:53:13;;;;;;;11.55;7.07;;;30.50;99.90;;;;;;5054868;28;20090;-69
2023/01/30 08:55:39;;;;;;;16.75;7.65;;;30.40;99.90;;;;;;5055150;28;20021;-69
2023/01/30 08:58:06;;;;;;;27.65;15.82;;;30.50;99.90;;;;;;5055031;28;20032;-70
2023/01/30 09:00:32;;;;;;;28.15;15.13;;;30.30;99.90;;;;;;5054812;28;20111;-70
2023/01/30 09:03:00;;;;;;;107.18;70.38;;;30.40;99.90;;;;;;5054957;28;20029;-70
2023/01/30 09:05:28;;;;;;;15.80;9.90;;;30.50;99.90;;;;;;5054859;28;20057;-70
2023/01/30 09:07:55;;;;;;;74.32;46.35;;;30.40;99.90;;;;;;5051617;28;20030;-70
2023/01/30 09:10:23;;;;;;;80.80;51.15;;;30.30;99.90;;;;;;5043963;28;20045;-70
2023/01/30 09:12:49;;;;;;;27.92;17.95;;;30.30;99.90;;;;;;5044628;28;20025;-70
2023/01/30 09:15:16;;;;;;;29.00;15.35;;;30.30;99.90;;;;;;5043228;28;20483;-70
2023/01/30 09:17:43;;;;;;;58.40;31.35;;;30.50;99.90;;;;;;5040604;28;20074;-69
2023/01/30 09:20:11;;;;;;;103.38;55.15;;;30.50;99.90;;;;;;5044874;28;20040;-68
2023/01/30 09:22:38;;;;;;;127.97;53.47;;;30.40;99.90;;;;;;5045711;28;20020;-67
2023/01/30 09:25:06;;;;;;;45.25;29.38;;;30.40;99.90;;;;;;5044727;28;20075;-69
2023/01/30 09:27:32;;;;;;;63.75;33.95;;;30.40;99.90;;;;;;5042731;28;20026;-69
2023/01/30 09:29:59;;;;;;;41.80;22.92;;;30.50;99.90;;;;;;5045831;28;20045;-69
2023/01/30 09:32:25;;;;;;;39.88;25.13;;;30.60;99.90;;;;;;5055258;28;20063;-70
2023/01/30 09:34:52;;;;;;;33.50;19.48;;;30.50;99.90;;;;;;5055400;28;20029;-69
2023/01/30 09:37:18;;;;;;;52.72;30.05;;;30.50;99.90;;;;;;5056029;28;20489;-70
2023/01/30 09:39:45;;;;;;;24.58;14.15;;;30.60;99.90;;;;;;5055570;28;20033;-69
2023/01/30 09:42:24;;;;;;;13.90;7.82;;;30.40;99.90;;;;;;5054784;28;20078;-70
2023/01/30 09:45:20;;;;;;;18.40;10.27;;;30.30;99.90;;;;;;5055197;28;20029;-69
2023/01/30 09:47:54;;;;;;;18.58;10.00;;;30.30;99.90;;;;;;5051705;28;20539;-68
2023/01/30 09:50:29;;;;;;;33.13;18.60;;;30.30;99.90;;;;;;5054854;28;20040;-70
2023/01/30 09:53:02;;;;;;;32.85;21.38;;;30.20;99.90;;;;;;5053934;28;20032;-70
2023/01/30 09:55:31;;;;;;;59.60;43.97;;;30.20;99.90;;;;;;5054500;28;20052;-70
2023/01/30 09:57:59;;;;;;;44.85;29.40;;;30.10;99.90;;;;;;5054294;28;20029;-71
2023/01/30 10:00:38;;;;;;;32.70;25.15;;;30.00;99.90;;;;;;5048737;28;20371;-71
2023/01/30 10:03:10;;;;;;;52.67;33.58;;;29.70;99.90;;;;;;5047053;28;20025;-71
2023/01/30 10:05:56;;;;;;;48.75;31.60;;;29.50;99.90;;;;;;5054383;28;20033;-71
2023/01/30 10:08:49;;;;;;;24.23;15.98;;;29.60;99.90;;;;;;5046686;28;20023;-71
2023/01/30 10:11:35;;;;;;;18.23;10.32;;;29.50;99.90;;;;;;5044375;28;20020;-73
2023/01/30 10:14:23;;;;;;;34.05;23.25;;;29.20;99.90;;;;;;5049867;28;20040;-74
2023/01/30 10:17:05;;;;;;;69.05;46.33;;;29.30;99.90;;;;;;5038325;28;20037;-73
2023/01/30 10:19:42;;;;;;;27.65;20.52;;;29.20;99.90;;;;;;5044772;28;20025;-72
2023/01/30 10:22:37;;;;;;;28.75;17.23;;;29.30;99.90;;;;;;5042097;28;20987;-71
2023/01/30 10:25:32;;;;;;;38.92;20.55;;;29.30;99.90;;;;;;5043827;28;20060;-71
2023/01/30 10:28:01;;;;;;;41.85;29.55;;;29.20;99.90;;;;;;5024709;28;20041;-73
2023/01/30 10:30:28;;;;;;;43.30;27.13;;;29.20;99.90;;;;;;5043937;28;20443;-72
2023/01/30 10:33:03;;;;;;;54.70;32.40;;;29.20;99.90;;;;;;5042428;28;20029;-73
2023/01/30 10:36:55;;;;;;;56.35;30.80;;;29.30;99.90;;;;;;5110626;27;20452;-71
2023/01/30 10:39:34;;;;;;;61.05;32.35;;;29.20;99.90;;;;;;5107829;28;20253;-70
2023/01/30 10:42:13;;;;;;;116.75;57.78;;;29.30;99.90;;;;;;5108795;28;20020;-73
2023/01/30 10:44:41;;;;;;;50.38;25.70;;;29.30;99.90;;;;;;5108666;28;20028;-71
2023/01/30 10:47:18;;;;;;;47.65;26.10;;;29.20;99.90;;;;;;5109954;28;20051;-71
2023/01/30 10:49:50;;;;;;;42.58;25.30;;;29.20;99.90;;;;;;5109523;28;20032;-72
2023/01/30 10:52:17;;;;;;;42.45;20.27;;;29.20;99.90;;;;;;5107519;28;20028;-71
2023/01/30 10:55:14;;;;;;;60.65;32.47;;;29.10;99.90;;;;;;5109584;28;20107;-70
2023/01/30 10:57:42;;;;;;;30.10;14.95;;;29.00;99.90;;;;;;5109197;28;20020;-68
2023/01/30 11:00:24;;;;;;;26.13;14.00;;;28.80;99.90;;;;;;5107250;28;20019;-67
2023/01/30 11:02:52;;;;;;;;;;;28.90;99.90;;;;;;5106703;28;20061;-69
2023/01/30 11:05:24;;;;;;;28.60;12.38;;;28.60;99.90;;;;;;5111054;28;19908;-69
2023/01/30 11:07:51;;;;;;;27.75;13.77;;;28.50;99.90;;;;;;5110350;28;20068;-69
2023/01/30 11:10:24;;;;;;;35.17;14.32;;;28.40;99.90;;;;;;5110202;28;20035;-68
2023/01/30 11:12:59;;;;;;;42.20;12.55;;;28.30;99.90;;;;;;5107509;28;20051;-69
2023/01/30 11:15:39;;;;;;;26.80;11.65;;;28.30;99.90;;;;;;5110360;28;20024;-69
2023/01/30 11:18:07;;;;;;;31.35;13.80;;;28.30;99.90;;;;;;5110083;28;20020;-72
2023/01/30 11:20:40;;;;;;;22.85;10.95;;;28.40;99.90;;;;;;5109722;28;20288;-72
2023/01/30 11:23:22;;;;;;;44.13;23.73;;;28.30;99.90;;;;;;5107837;28;20024;-72
2023/01/30 11:25:55;;;;;;;26.85;12.20;;;28.30;99.90;;;;;;5109750;28;20028;-73
2023/01/30 11:28:23;;;;;;;39.58;25.60;;;28.10;99.90;;;;;;5107611;28;20024;-74
2023/01/30 11:30:59;;;;;;;41.80;28.95;;;28.10;99.90;;;;;;5109674;28;20027;-74
2023/01/30 11:33:34;;;;;;;28.15;12.50;;;28.10;99.90;;;;;;5107937;28;20019;-72
2023/01/30 11:36:04;;;;;;;30.77;14.57;;;28.20;99.90;;;;;;5106402;28;20043;-72
2023/01/30 11:39:03;;;;;;;22.63;11.32;;;28.30;99.90;;;;;;5109523;28;20054;-71
2023/01/30 11:41:30;;;;;;;30.45;14.55;;;28.20;99.90;;;;;;5107826;28;20099;-72
2023/01/30 11:44:01;;;;;;;27.27;13.52;;;28.20;99.90;;;;;;5108852;28;20020;-71
2023/01/30 11:46:32;;;;;;;21.70;12.10;;;28.10;99.90;;;;;;5104720;28;20405;-71
2023/01/30 11:49:04;;;;;;;28.00;12.90;;;28.10;99.90;;;;;;5095686;28;20377;-72
2023/01/30 11:51:35;;;;;;;34.17;14.40;;;28.20;99.90;;;;;;5095575;28;20468;-73
2023/01/30 11:54:06;;;;;;;34.75;20.30;;;28.20;99.90;;;;;;5092112;28;20036;-73
2023/01/30 11:56:53;;;;;;;40.63;21.20;;;28.30;99.90;;;;;;5094914;28;20051;-71
2023/01/30 11:59:29;;;;;;;30.95;16.40;;;28.40;99.90;;;;;;5095384;28;20020;-72
2023/01/30 12:02:16;;;;;;;42.58;18.65;;;28.40;99.90;;;;;;5095844;28;20040;-73
2023/01/30 12:04:44;;;;;;;41.05;20.17;;;28.50;99.90;;;;;;5091295;28;20373;-72
2023/01/30 12:07:24;;;;;;;29.98;15.48;;;28.50;99.90;;;;;;5095244;28;20020;-73
2023/01/30 12:09:53;;;;;;;33.70;15.70;;;28.40;99.90;;;;;;5092200;28;20027;-73
2023/01/30 12:12:28;;;;;;;31.27;15.23;;;28.30;99.90;;;;;;5093326;28;20169;-73
2023/01/30 12:15:04;;;;;;;27.67;13.80;;;28.30;99.90;;;;;;5093560;28;20506;-71
2023/01/30 12:18:10;;;;;;;34.67;15.43;;;28.30;99.90;;;;;;5096186;28;20055;-72
2023/01/30 12:20:43;;;;;;;22.98;11.90;;;28.20;99.90;;;;;;5096048;28;20062;-72
2023/01/30 12:23:15;;;;;;;28.00;13.82;;;28.20;99.90;;;;;;5095709;28;20027;-72
2023/01/30 12:26:00;;;;;;;27.58;14.07;;;28.00;99.90;;;;;;5095654;28;20031;-73
2023/01/30 12:28:44;;;;;;;21.85;10.93;;;28.00;99.90;;;;;;5087958;28;20397;-75
2023/01/30 12:31:28;;;;;;;21.85;10.65;;;28.00;99.90;;;;;;5075612;28;20016;-74
2023/01/30 12:33:55;;;;;;;26.63;11.82;;;28.10;99.90;;;;;;5075814;28;20028;-68
2023/01/30 12:36:31;;;;;;;22.88;10.85;;;28.00;99.90;;;;;;5075433;28;20055;-69
2023/01/30 12:39:00;;;;;;;16.98;9.73;;;27.90;99.90;;;;;;5075303;28;20017;-68
2023/01/30 12:41:37;;;;;;;23.25;11.07;;;27.90;99.90;;;;;;5075418;28;20111;-69
2023/01/30 12:44:13;;;;;;;28.10;11.82;;;27.90;99.90;;;;;;5074123;28;20377;-69
2023/01/30 12:47:00;;;;;;;19.25;10.05;;;27.90;99.90;;;;;;5075309;28;20465;-68
2023/01/30 12:49:46;;;;;;;18.77;9.80;;;27.90;99.90;;;;;;5074937;28;20066;-70
2023/01/30 12:52:18;;;;;;;22.77;9.35;;;27.90;99.90;;;;;;5075394;28;20055;-68
2023/01/30 12:54:57;;;;;;;21.60;13.38;;;27.80;99.90;;;;;;5075308;28;20074;-68
2023/01/30 12:57:43;;;;;;;17.45;8.38;;;27.80;99.90;;;;;;5075274;28;20025;-68
2023/01/30 13:00:36;;;;;;;18.77;9.93;;;27.70;99.90;;;;;;5074411;28;20069;-69
2023/01/30 13:03:13;;;;;;;21.05;10.20;;;27.50;99.90;;;;;;5082225;28;20099;-67
2023/01/30 13:05:42;;;;;;;23.27;10.90;;;27.60;99.90;;;;;;5091105;28;20074;-70
2023/01/30 13:08:17;;;;;;;32.47;18.73;;;27.80;99.90;;;;;;5094814;28;20023;-68
2023/01/30 13:10:50;;;;;;;43.47;19.92;;;27.70;99.90;;;;;;5093259;28;20020;-70
2023/01/30 13:13:28;;;;;;;32.15;15.68;;;27.70;99.90;;;;;;5092967;28;20031;-70
2023/01/30 13:16:15;;;;;;;31.98;15.75;;;27.80;99.90;;;;;;5094797;28;20111;-71
2023/01/30 13:18:54;;;;;;;38.92;14.90;;;27.90;99.90;;;;;;5094996;28;20103;-71
2023/01/30 13:21:43;;;;;;;18.88;10.00;;;27.80;99.90;;;;;;5093103;28;20090;-72
2023/01/30 13:24:38;;;;;;;169.75;91.60;;;27.70;99.90;;;;;;5093741;28;20121;-73
2023/01/30 13:27:14;;;;;;;102.82;63.47;;;27.70;99.90;;;;;;5093513;28;20036;-73
2023/01/30 13:29:41;;;;;;;55.15;34.17;;;27.80;99.90;;;;;;5093962;28;20024;-71
2023/01/30 13:32:29;;;;;;;48.80;28.80;;;27.90;99.90;;;;;;5093944;28;20420;-69
